Quick Links (Output Below):   Max & Min Temps   /   Climate Reports   /   Zone Forecasts
River Forecasts   /   Forestry Forecasts   /   Aviation Forecasts   /   Radars   /   Features

Terminal Aerodrome Forecast (Pine Bluff)

Pick a Site:
Arkadelphia | El Dorado | Fayetteville | Fort Smith | Harrison | Highfill | Hot Springs | Jonesboro
Little Rock | Monticello | Mountain Home | Pine Bluff | Texarkana
 Forecast 

KPBF 221121Z 2212/2312 18008G18KT P6SM VCSH BKN012 OVC025
      TEMPO 2214/2216 -DZ BKN008 OVC015
     FM221600 18008G18KT P6SM VCSH SCT008 OVC015
      TEMPO 2216/2220 BKN008
     FM230000 21006KT P6SM VCSH BKN025 BKN250
     FM230400 28007KT P6SM SCT025 BKN250=


 Latest METARs (Observations) 
How to Decode METARs
12Z KPBF 221153Z AUTO 17009KT 5SM -RA BR OVC005 09/08 A2979 RMK AO2
         RAB18 SLP087 P0001 60001 70001 T00940083 10094 20072
         55013
         
11Z KPBF 221053Z AUTO 17011G19KT 10SM OVC006 09/08 A2979 RMK AO2
         SLP086 T00940078
         
10Z KPBF 220953Z AUTO 17012KT 10SM OVC008 09/08 A2981 RMK AO2 SLP093
         T00940078
         
09Z KPBF 220853Z AUTO 17007KT 10SM OVC010 09/07 A2983 RMK AO2 SLP100
         T00940072 58011
         
08Z KPBF 220753Z AUTO 00000KT 10SM OVC012 08/06 A2986 RMK AO2 SLP109
         T00780056
         
07Z KPBF 220653Z AUTO 16010KT 10SM FEW070 08/06 A2986 RMK AO2 SLP109
         T00780056
         
06Z KPBF 220553Z AUTO 12008KT 10SM CLR 05/03 A2986 RMK AO2 SLP112
         T00500028 10083 20044 401331011 58023
         
05Z KPBF 220453Z AUTO 13005KT 10SM CLR 05/03 A2989 RMK AO2 SLP121
         T00500028
         
04Z KPBF 220353Z AUTO 09004KT 10SM FEW080 06/03 A2991 RMK AO2 SLP129
         T00560033
         
03Z KPBF 220253Z AUTO 09005KT 10SM SCT080 06/03 A2993 RMK AO2 SLP135
         T00610033 58010
         
***** Today's Observations (Above) *****


Back to Main Page
http://www.srh.noaa.gov/lzk/qfcst.php

USA.gov is the U.S. government's official web portal to all federal, state and local government web resources and services.